createdAt,value
2022-09-06T00:00:17.749Z,10.1
2022-09-06T00:05:15.548Z,9.9
2022-09-06T00:10:13.588Z,10
2022-09-06T00:15:11.498Z,9.9
2022-09-06T00:20:09.566Z,9.9
2022-09-06T00:25:08.111Z,9.8
2022-09-06T00:30:06.094Z,9.7
2022-09-06T00:35:04.034Z,9.8
2022-09-06T00:40:02.129Z,9.7
2022-09-06T00:45:00.211Z,9.7
2022-09-06T00:49:58.197Z,9.6
2022-09-06T00:54:56.480Z,9.7
2022-09-06T00:59:54.660Z,9.7
2022-09-06T01:04:52.800Z,9.7
2022-09-06T01:09:50.994Z,9.6
2022-09-06T01:14:49.161Z,9.5
2022-09-06T01:19:47.278Z,9.5
2022-09-06T01:24:45.384Z,9.4
2022-09-06T01:29:43.454Z,9.3
2022-09-06T01:34:41.661Z,9.4
2022-09-06T01:39:39.761Z,9.3
2022-09-06T01:44:38.005Z,9.4
2022-09-06T01:49:36.255Z,9.4
2022-09-06T01:54:34.545Z,9.4
2022-09-06T01:59:32.670Z,9.3
2022-09-06T02:04:30.918Z,9.3
2022-09-06T02:09:29.098Z,9.2
2022-09-06T02:14:27.171Z,9.1
2022-09-06T02:19:25.334Z,9.1
2022-09-06T02:24:23.590Z,9.1
2022-09-06T02:29:21.669Z,9
2022-09-06T02:34:19.691Z,8.9
2022-09-06T02:39:17.710Z,8.9
2022-09-06T02:44:16.048Z,8.9
2022-09-06T02:49:14.122Z,8.9
2022-09-06T02:54:12.298Z,8.8
2022-09-06T02:59:10.377Z,8.8
2022-09-06T03:04:08.538Z,8.7
2022-09-06T03:09:06.683Z,8.8
2022-09-06T03:14:04.833Z,8.7
2022-09-06T03:19:02.995Z,8.6
2022-09-06T03:24:01.254Z,8.7
2022-09-06T03:28:59.306Z,8.6
2022-09-06T03:33:57.326Z,8.5
2022-09-06T03:38:55.409Z,8.5
2022-09-06T03:43:53.418Z,8.4
2022-09-06T03:48:51.707Z,8.4
2022-09-06T03:53:49.810Z,8.4
2022-09-06T03:58:47.970Z,8.3
2022-09-06T04:03:45.943Z,8.2
2022-09-06T04:08:44.053Z,8.4
2022-09-06T04:13:42.367Z,8.5
2022-09-06T04:18:40.813Z,8.7
2022-09-06T04:23:40.128Z,9.4
2022-09-06T04:28:38.072Z,9.9
2022-09-06T04:33:36.570Z,10.2
2022-09-06T04:38:35.034Z,10.8
2022-09-06T04:43:33.649Z,11.4
2022-09-06T04:48:32.228Z,12.1
2022-09-06T04:53:30.654Z,12.7
2022-09-06T04:58:29.532Z,13.1
2022-09-06T05:03:28.120Z,13.8
2022-09-06T05:08:26.939Z,14.3
2022-09-06T05:13:25.871Z,14.9
2022-09-06T05:18:24.824Z,16.1
2022-09-06T05:23:24.150Z,17.4
2022-09-06T05:28:23.527Z,18.7
2022-09-06T05:33:22.377Z,19.7
2022-09-06T05:38:21.209Z,20.4
2022-09-06T05:43:19.850Z,20.8
2022-09-06T05:48:18.394Z,21.4
2022-09-06T05:53:16.716Z,21.8
2022-09-06T05:58:15.525Z,22.5
2022-09-06T06:03:14.550Z,23.2
2022-09-06T06:08:13.124Z,23.5
2022-09-06T06:13:12.267Z,24.4
2022-09-06T06:18:11.595Z,25.3
2022-09-06T06:23:10.444Z,25.6
2022-09-06T06:28:09.124Z,26.4
2022-09-06T06:33:08.187Z,27.2
2022-09-06T06:38:07.045Z,28.1
2022-09-06T06:43:05.233Z,27.8
2022-09-06T06:48:03.360Z,28.5
2022-09-06T06:53:01.540Z,28.1
2022-09-06T06:58:03.482Z,29.1
2022-09-06T07:03:01.417Z,29.6
2022-09-06T07:07:59.093Z,28.1
2022-09-06T07:12:56.952Z,28.7
2022-09-06T07:17:55.199Z,28.9
2022-09-06T07:22:53.553Z,29.8
2022-09-06T07:27:51.217Z,30
2022-09-06T07:32:49.758Z,30.2
2022-09-06T07:37:48.834Z,31
2022-09-06T07:42:47.440Z,32
2022-09-06T07:48:02.130Z,32.6
2022-09-06T07:57:43.103Z,32.9
2022-09-06T08:02:41.069Z,32.1
2022-09-06T08:07:39.626Z,33.7
2022-09-06T08:12:37.820Z,33.7
2022-09-06T08:17:35.538Z,33.7
2022-09-06T08:22:33.045Z,33.4
2022-09-06T08:27:31.514Z,34.3
2022-09-06T08:32:29.780Z,34.8
2022-09-06T08:37:26.804Z,34.6
2022-09-06T08:42:26.280Z,35.8
2022-09-06T08:47:24.054Z,34.1
2022-09-06T08:52:21.761Z,35
2022-09-06T08:57:20.130Z,35.6
2022-09-06T09:02:18.706Z,36.3
2022-09-06T09:07:17.261Z,36.9
2022-09-06T09:12:15.308Z,36.6
2022-09-06T09:17:13.035Z,35.9
2022-09-06T09:22:11.467Z,36.5
2022-09-06T09:27:09.251Z,35.2
2022-09-06T09:32:06.983Z,35.1
2022-09-06T09:42:03.375Z,34.3
2022-09-06T09:47:02.372Z,34.8
2022-09-06T09:52:00.952Z,34.9
2022-09-06T09:56:58.617Z,35.2
2022-09-06T10:01:56.634Z,35
2022-09-06T10:07:10.292Z,34.9
2022-09-06T10:11:52.383Z,35.4
2022-09-06T10:16:50.781Z,35.5
2022-09-06T10:21:49.083Z,35.5
2022-09-06T10:26:46.556Z,36.1
2022-09-06T10:31:44.312Z,36.5
2022-09-06T10:36:43.328Z,36.1
2022-09-06T10:41:39.591Z,36
2022-09-06T10:46:38.345Z,36.5
2022-09-06T10:51:36.964Z,37.1
2022-09-06T10:56:34.955Z,37
2022-09-06T11:01:33.718Z,37.6
2022-09-06T11:06:31.884Z,38.3
2022-09-06T11:11:33.242Z,37.5
2022-09-06T11:16:30.240Z,37.6
2022-09-06T11:21:28.168Z,38
2022-09-06T11:26:26.820Z,38.2
2022-09-06T11:36:22.580Z,37.8
2022-09-06T11:41:20.505Z,38.2
2022-09-06T11:46:20.574Z,38.2
2022-09-06T11:51:16.264Z,37.4
2022-09-06T11:56:13.663Z,37.3
2022-09-06T12:01:11.617Z,38.8
2022-09-06T12:06:09.794Z,38.8
2022-09-06T12:11:07.270Z,40.2
2022-09-06T12:16:01.535Z,30.2
2022-09-06T12:20:56.528Z,29
2022-09-06T12:25:55.427Z,32.1
2022-09-06T12:30:52.411Z,33.6
2022-09-06T12:35:56.650Z,27.6
2022-09-06T12:40:45.740Z,26.5
2022-09-06T12:45:43.404Z,26.4
2022-09-06T12:50:41.352Z,26.3
2022-09-06T12:55:39.780Z,26.6
2022-09-06T13:00:38.204Z,26.5
2022-09-06T13:05:36.426Z,27
2022-09-06T13:10:34.818Z,27.1
2022-09-06T13:15:32.573Z,26.6
2022-09-06T13:20:30.628Z,26.6
2022-09-06T13:25:29.265Z,26.8
2022-09-06T13:30:27.474Z,26.7
2022-09-06T13:35:25.251Z,26.1
2022-09-06T13:40:22.834Z,25.6
2022-09-06T13:45:20.846Z,25.1
2022-09-06T13:50:19.008Z,25.2
2022-09-06T13:55:17.308Z,25
2022-09-06T14:00:15.307Z,24.8
2022-09-06T14:05:13.211Z,24.3
2022-09-06T14:10:11.046Z,23.5
2022-09-06T14:15:08.913Z,22.7
2022-09-06T14:20:06.741Z,22.6
2022-09-06T14:25:05.062Z,22.7
2022-09-06T14:30:03.388Z,23.1
2022-09-06T14:35:01.798Z,23.1
2022-09-06T14:40:01.509Z,23.2
2022-09-06T14:45:00.388Z,23.7
2022-09-06T14:49:58.674Z,23.6
2022-09-06T14:54:56.789Z,24
2022-09-06T14:59:54.956Z,23.6
2022-09-06T15:04:52.786Z,23.7
2022-09-06T15:09:50.364Z,23.1
2022-09-06T15:14:47.896Z,22.4
2022-09-06T15:19:45.663Z,22.1
2022-09-06T15:24:43.670Z,21.9
2022-09-06T15:29:41.396Z,21.7
2022-09-06T15:34:39.432Z,21.4
2022-09-06T15:39:37.352Z,21.4
2022-09-06T15:44:35.203Z,21
2022-09-06T15:49:32.969Z,20.7
2022-09-06T15:54:30.774Z,20.5
2022-09-06T15:59:28.566Z,20.1
2022-09-06T16:04:26.517Z,19.9
2022-09-06T16:09:24.353Z,19.7
2022-09-06T16:14:21.675Z,19.2
2022-09-06T16:19:19.248Z,18.8
2022-09-06T16:24:16.901Z,18.2
2022-09-06T16:29:14.582Z,17.5
2022-09-06T16:34:12.331Z,17.2
2022-09-06T16:39:10.054Z,16.7
2022-09-06T16:44:07.845Z,16.5
2022-09-06T16:49:05.789Z,16.2
2022-09-06T16:54:03.602Z,15.8
2022-09-06T16:59:01.321Z,15.5
2022-09-06T17:03:59.204Z,15.2
2022-09-06T17:08:57.135Z,15
2022-09-06T17:13:55.041Z,14.6
2022-09-06T17:18:53.220Z,14.5
2022-09-06T17:23:50.901Z,14.3
2022-09-06T17:28:48.606Z,14.3
2022-09-06T17:33:46.668Z,14.2
2022-09-06T17:38:44.603Z,14
2022-09-06T17:43:42.733Z,14
2022-09-06T17:48:40.663Z,13.9
2022-09-06T17:53:39.045Z,13.9
2022-09-06T17:58:36.857Z,13.9
2022-09-06T18:03:34.971Z,13.9
2022-09-06T18:08:33.316Z,13.7
2022-09-06T18:13:31.295Z,13.8
2022-09-06T18:18:29.584Z,14.2
2022-09-06T18:23:27.583Z,14.2
2022-09-06T18:28:25.499Z,14
2022-09-06T18:33:23.427Z,14
2022-09-06T18:38:21.600Z,14
2022-09-06T18:43:19.921Z,14
2022-09-06T18:48:17.996Z,14
2022-09-06T18:53:16.038Z,13.9
2022-09-06T18:58:14.154Z,13.9
2022-09-06T19:03:12.518Z,13.9
2022-09-06T19:08:10.889Z,13.8
2022-09-06T19:13:09.211Z,13.6
2022-09-06T19:18:07.208Z,13.4
2022-09-06T19:23:05.418Z,13.3
2022-09-06T19:28:03.650Z,13.2
2022-09-06T19:33:01.820Z,13
2022-09-06T19:38:00.138Z,12.9
2022-09-06T19:42:58.155Z,12.8
2022-09-06T19:47:56.171Z,12.8
2022-09-06T19:52:54.278Z,12.8
2022-09-06T19:57:52.274Z,12.6
2022-09-06T20:02:50.392Z,12.4
2022-09-06T20:07:48.488Z,12.4
2022-09-06T20:12:46.736Z,12.4
2022-09-06T20:17:44.884Z,12.4
2022-09-06T20:22:43.107Z,12.4
2022-09-06T20:27:44.356Z,12.4
2022-09-06T20:32:39.144Z,12.3
2022-09-06T20:37:37.209Z,12.2
2022-09-06T20:42:35.245Z,12.1
2022-09-06T20:47:33.228Z,12
2022-09-06T20:52:31.164Z,12
2022-09-06T20:57:29.428Z,12.1
2022-09-06T21:02:27.682Z,12.1
2022-09-06T21:07:25.803Z,12.2
2022-09-06T21:12:23.749Z,12.1
2022-09-06T21:17:21.898Z,12.1
2022-09-06T21:22:19.848Z,12.1
2022-09-06T21:27:17.934Z,12.1
2022-09-06T21:32:15.875Z,12
2022-09-06T21:37:13.961Z,11.9
2022-09-06T21:42:11.953Z,11.9
2022-09-06T21:47:10.158Z,11.9
2022-09-06T21:52:07.997Z,11.9
2022-09-06T21:57:09.681Z,11.9
2022-09-06T22:02:06.957Z,12
2022-09-06T22:07:04.847Z,11.9
2022-09-06T22:12:02.969Z,11.8
2022-09-06T22:17:01.173Z,11.8
2022-09-06T22:21:59.768Z,11.7
2022-09-06T22:26:57.591Z,11.8
2022-09-06T22:31:56.220Z,11.7
2022-09-06T22:36:54.290Z,11.7
2022-09-06T22:41:52.284Z,11.6
2022-09-06T22:46:50.344Z,11.5
2022-09-06T22:51:48.358Z,11.4
2022-09-06T22:56:46.306Z,11.2
2022-09-06T23:01:44.364Z,11.1
2022-09-06T23:06:42.413Z,11
2022-09-06T23:11:40.465Z,11
2022-09-06T23:16:38.653Z,10.9
2022-09-06T23:21:36.805Z,10.8
2022-09-06T23:26:34.999Z,10.8
2022-09-06T23:31:33.223Z,10.7
2022-09-06T23:36:30.917Z,10.7
2022-09-06T23:41:28.912Z,10.6
2022-09-06T23:46:26.910Z,10.7
2022-09-06T23:51:24.945Z,10.6
2022-09-06T23:56:23.349Z,10.7
